sensor_id;sensor_type;location;lat;lon;timestamp;temperature;humidity
23083;DHT22;11709;52.420;10.538;2023-01-29T00:01:06;0.20;99.90
23083;DHT22;11709;52.420;10.538;2023-01-29T00:05:08;0.20;99.90
23083;DHT22;11709;52.420;10.538;2023-01-29T00:09:10;0.20;99.90
23083;DHT22;11709;52.420;10.538;2023-01-29T00:13:12;0.20;99.90
23083;DHT22;11709;52.420;10.538;2023-01-29T00:17:14;0.20;99.90
23083;DHT22;11709;52.420;10.538;2023-01-29T00:21:17;0.20;99.90
23083;DHT22;11709;52.420;10.538;2023-01-29T00:25:19;0.20;99.90
23083;DHT22;11709;52.420;10.538;2023-01-29T00:29:21;0.30;99.90
23083;DHT22;11709;52.420;10.538;2023-01-29T00:33:23;0.30;99.90
23083;DHT22;11709;52.420;10.538;2023-01-29T00:37:24;0.30;99.90
23083;DHT22;11709;52.420;10.538;2023-01-29T00:41:27;0.30;99.90
23083;DHT22;11709;52.420;10.538;2023-01-29T00:45:48;0.40;99.90
23083;DHT22;11709;52.420;10.538;2023-01-29T00:49:50;0.40;99.90
23083;DHT22;11709;52.420;10.538;2023-01-29T00:53:52;0.40;99.90
23083;DHT22;11709;52.420;10.538;2023-01-29T00:57:55;0.40;99.90
23083;DHT22;11709;52.420;10.538;2023-01-29T01:01:57;0.40;99.90
23083;DHT22;11709;52.420;10.538;2023-01-29T01:06:17;0.40;99.90
23083;DHT22;11709;52.420;10.538;2023-01-29T01:10:20;0.40;99.90
23083;DHT22;11709;52.420;10.538;2023-01-29T01:14:22;0.50;99.90
23083;DHT22;11709;52.420;10.538;2023-01-29T01:18:24;0.40;99.90
23083;DHT22;11709;52.420;10.538;2023-01-29T01:22:26;0.50;99.90
23083;DHT22;11709;52.420;10.538;2023-01-29T01:26:28;0.50;99.90
23083;DHT22;11709;52.420;10.538;2023-01-29T01:30:30;0.40;99.90
23083;DHT22;11709;52.420;10.538;2023-01-29T01:34:32;0.40;99.90
23083;DHT22;11709;52.420;10.538;2023-01-29T01:38:37;0.40;99.90
23083;DHT22;11709;52.420;10.538;2023-01-29T01:42:52;0.40;99.90
23083;DHT22;11709;52.420;10.538;2023-01-29T01:46:54;0.30;99.90
23083;DHT22;11709;52.420;10.538;2023-01-29T01:50:57;0.40;99.90
23083;DHT22;11709;52.420;10.538;2023-01-29T01:55:00;0.40;99.90
23083;DHT22;11709;52.420;10.538;2023-01-29T01:59:02;0.40;99.90
23083;DHT22;11709;52.420;10.538;2023-01-29T02:03:06;0.30;99.90
23083;DHT22;11709;52.420;10.538;2023-01-29T02:07:26;-0.60;99.90
23083;DHT22;11709;52.420;10.538;2023-01-29T02:11:46;-0.80;99.90
23083;DHT22;11709;52.420;10.538;2023-01-29T02:15:48;0.20;99.90
23083;DHT22;11709;52.420;10.538;2023-01-29T02:24:05;0.40;99.90
23083;DHT22;11709;52.420;10.538;2023-01-29T02:40:49;0.10;99.90
23083;DHT22;11709;52.420;10.538;2023-01-29T02:44:59;0.40;99.90
23083;DHT22;11709;52.420;10.538;2023-01-29T02:53:26;0.40;99.90
23083;DHT22;11709;52.420;10.538;2023-01-29T02:57:29;0.50;99.90
23083;DHT22;11709;52.420;10.538;2023-01-29T03:01:52;0.50;99.90
23083;DHT22;11709;52.420;10.538;2023-01-29T03:06:01;0.60;99.90
23083;DHT22;11709;52.420;10.538;2023-01-29T03:10:16;0.60;99.90
23083;DHT22;11709;52.420;10.538;2023-01-29T03:18:39;0.60;99.90
23083;DHT22;11709;52.420;10.538;2023-01-29T03:22:44;0.60;99.90
23083;DHT22;11709;52.420;10.538;2023-01-29T03:26:46;0.50;99.90
23083;DHT22;11709;52.420;10.538;2023-01-29T03:31:06;0.30;99.90
23083;DHT22;11709;52.420;10.538;2023-01-29T03:35:27;0.50;99.90
23083;DHT22;11709;52.420;10.538;2023-01-29T03:39:38;0.50;99.90
23083;DHT22;11709;52.420;10.538;2023-01-29T03:43:59;0.40;99.90
23083;DHT22;11709;52.420;10.538;2023-01-29T03:48:02;0.40;99.90
23083;DHT22;11709;52.420;10.538;2023-01-29T03:52:11;0.50;99.90
23083;DHT22;11709;52.420;10.538;2023-01-29T04:04:40;1.00;99.90
23083;DHT22;11709;52.420;10.538;2023-01-29T04:08:50;0.40;99.90
23083;DHT22;11709;52.420;10.538;2023-01-29T04:12:56;0.40;99.90
23083;DHT22;11709;52.420;10.538;2023-01-29T04:16:59;0.40;99.90
23083;DHT22;11709;52.420;10.538;2023-01-29T04:21:01;0.40;99.90
23083;DHT22;11709;52.420;10.538;2023-01-29T04:25:06;0.50;99.90
23083;DHT22;11709;52.420;10.538;2023-01-29T04:29:19;0.40;99.90
23083;DHT22;11709;52.420;10.538;2023-01-29T04:33:39;0.40;99.90
23083;DHT22;11709;52.420;10.538;2023-01-29T04:37:43;0.40;99.90
23083;DHT22;11709;52.420;10.538;2023-01-29T04:41:52;0.40;99.90
23083;DHT22;11709;52.420;10.538;2023-01-29T04:45:56;0.40;99.90
23083;DHT22;11709;52.420;10.538;2023-01-29T04:50:01;0.40;99.90
23083;DHT22;11709;52.420;10.538;2023-01-29T04:58:20;0.40;99.90
23083;DHT22;11709;52.420;10.538;2023-01-29T05:02:40;0.30;99.90
23083;DHT22;11709;52.420;10.538;2023-01-29T05:06:28;0.30;99.90
23083;DHT22;11709;52.420;10.538;2023-01-29T05:10:32;0.30;99.90
23083;DHT22;11709;52.420;10.538;2023-01-29T05:14:35;0.30;99.90
23083;DHT22;11709;52.420;10.538;2023-01-29T05:18:38;0.30;99.90
23083;DHT22;11709;52.420;10.538;2023-01-29T05:22:40;0.10;99.90
23083;DHT22;11709;52.420;10.538;2023-01-29T05:26:43;0.30;99.90
23083;DHT22;11709;52.420;10.538;2023-01-29T05:31:03;0.20;99.90
23083;DHT22;11709;52.420;10.538;2023-01-29T05:35:05;0.20;99.90
23083;DHT22;11709;52.420;10.538;2023-01-29T05:39:07;-0.60;99.90
23083;DHT22;11709;52.420;10.538;2023-01-29T05:43:23;-0.60;99.90
23083;DHT22;11709;52.420;10.538;2023-01-29T05:47:25;-0.50;99.90
23083;DHT22;11709;52.420;10.538;2023-01-29T05:51:26;1.10;99.90
23083;DHT22;11709;52.420;10.538;2023-01-29T05:55:28;0.30;99.90
23083;DHT22;11709;52.420;10.538;2023-01-29T05:59:30;0.20;99.90
23083;DHT22;11709;52.420;10.538;2023-01-29T06:03:32;0.20;99.90
23083;DHT22;11709;52.420;10.538;2023-01-29T06:07:34;0.30;99.90
23083;DHT22;11709;52.420;10.538;2023-01-29T06:11:36;0.30;99.90
23083;DHT22;11709;52.420;10.538;2023-01-29T06:15:38;0.40;99.90
23083;DHT22;11709;52.420;10.538;2023-01-29T06:19:40;0.40;99.90
23083;DHT22;11709;52.420;10.538;2023-01-29T06:23:42;0.40;99.90
23083;DHT22;11709;52.420;10.538;2023-01-29T06:27:44;0.40;99.90
23083;DHT22;11709;52.420;10.538;2023-01-29T06:31:46;0.50;99.90
23083;DHT22;11709;52.420;10.538;2023-01-29T06:35:48;0.50;99.90
23083;DHT22;11709;52.420;10.538;2023-01-29T06:39:49;0.60;99.90
23083;DHT22;11709;52.420;10.538;2023-01-29T06:43:51;0.60;99.90
23083;DHT22;11709;52.420;10.538;2023-01-29T06:47:53;0.60;99.90
23083;DHT22;11709;52.420;10.538;2023-01-29T06:51:55;0.60;99.90
23083;DHT22;11709;52.420;10.538;2023-01-29T06:55:56;0.70;99.90
23083;DHT22;11709;52.420;10.538;2023-01-29T06:59:58;0.70;99.90
23083;DHT22;11709;52.420;10.538;2023-01-29T07:04:01;0.60;99.90
23083;DHT22;11709;52.420;10.538;2023-01-29T07:08:03;0.70;99.90
23083;DHT22;11709;52.420;10.538;2023-01-29T07:12:05;0.70;99.90
23083;DHT22;11709;52.420;10.538;2023-01-29T07:16:06;0.80;99.90
23083;DHT22;11709;52.420;10.538;2023-01-29T07:20:08;0.80;99.90
23083;DHT22;11709;52.420;10.538;2023-01-29T07:24:10;0.90;99.90
23083;DHT22;11709;52.420;10.538;2023-01-29T07:28:12;0.90;99.90
23083;DHT22;11709;52.420;10.538;2023-01-29T07:32:14;1.00;99.90
23083;DHT22;11709;52.420;10.538;2023-01-29T07:36:16;1.00;99.90
23083;DHT22;11709;52.420;10.538;2023-01-29T07:40:18;1.00;99.50
23083;DHT22;11709;52.420;10.538;2023-01-29T07:44:20;1.00;98.90
23083;DHT22;11709;52.420;10.538;2023-01-29T07:48:21;1.70;99.30
23083;DHT22;11709;52.420;10.538;2023-01-29T07:52:23;1.20;98.30
23083;DHT22;11709;52.420;10.538;2023-01-29T07:56:25;1.00;98.70
23083;DHT22;11709;52.420;10.538;2023-01-29T08:00:27;1.10;98.10
23083;DHT22;11709;52.420;10.538;2023-01-29T08:04:29;1.20;98.20
23083;DHT22;11709;52.420;10.538;2023-01-29T08:08:31;1.10;98.30
23083;DHT22;11709;52.420;10.538;2023-01-29T08:12:32;1.10;97.60
23083;DHT22;11709;52.420;10.538;2023-01-29T08:16:35;1.20;98.60
23083;DHT22;11709;52.420;10.538;2023-01-29T08:20:37;1.10;97.00
23083;DHT22;11709;52.420;10.538;2023-01-29T08:24:39;1.20;96.40
23083;DHT22;11709;52.420;10.538;2023-01-29T08:28:43;1.20;96.90
23083;DHT22;11709;52.420;10.538;2023-01-29T08:32:45;1.20;95.60
23083;DHT22;11709;52.420;10.538;2023-01-29T08:36:47;1.20;98.20
23083;DHT22;11709;52.420;10.538;2023-01-29T08:40:49;1.10;98.10
23083;DHT22;11709;52.420;10.538;2023-01-29T08:44:50;1.20;98.10
23083;DHT22;11709;52.420;10.538;2023-01-29T08:48:52;1.20;96.60
23083;DHT22;11709;52.420;10.538;2023-01-29T08:52:58;1.30;95.30
23083;DHT22;11709;52.420;10.538;2023-01-29T08:57:00;1.30;94.60
23083;DHT22;11709;52.420;10.538;2023-01-29T09:01:05;1.10;95.70
23083;DHT22;11709;52.420;10.538;2023-01-29T09:05:08;1.40;96.70
23083;DHT22;11709;52.420;10.538;2023-01-29T09:09:10;1.30;99.90
23083;DHT22;11709;52.420;10.538;2023-01-29T09:13:11;0.70;99.90
23083;DHT22;11709;52.420;10.538;2023-01-29T09:17:13;0.20;99.90
23083;DHT22;11709;52.420;10.538;2023-01-29T09:21:15;2.10;99.90
23083;DHT22;11709;52.420;10.538;2023-01-29T09:25:17;1.00;99.90
23083;DHT22;11709;52.420;10.538;2023-01-29T09:29:19;1.30;99.90
23083;DHT22;11709;52.420;10.538;2023-01-29T09:33:20;1.30;99.90
23083;DHT22;11709;52.420;10.538;2023-01-29T09:37:24;1.90;99.90
23083;DHT22;11709;52.420;10.538;2023-01-29T09:41:32;1.40;99.90
23083;DHT22;11709;52.420;10.538;2023-01-29T09:45:32;0.90;99.90
23083;DHT22;11709;52.420;10.538;2023-01-29T09:49:35;1.40;99.90
23083;DHT22;11709;52.420;10.538;2023-01-29T09:53:44;1.40;99.90
23083;DHT22;11709;52.420;10.538;2023-01-29T09:57:47;0.90;99.90
23083;DHT22;11709;52.420;10.538;2023-01-29T10:10:40;1.60;99.90
23083;DHT22;11709;52.420;10.538;2023-01-29T10:23:29;1.70;99.90
23083;DHT22;11709;52.420;10.538;2023-01-29T10:27:33;1.80;99.90
23083;DHT22;11709;52.420;10.538;2023-01-29T10:31:36;1.80;97.30
23083;DHT22;11709;52.420;10.538;2023-01-29T10:35:45;2.00;97.50
23083;DHT22;11709;52.420;10.538;2023-01-29T10:39:43;1.90;97.70
23083;DHT22;11709;52.420;10.538;2023-01-29T10:43:50;1.90;96.70
23083;DHT22;11709;52.420;10.538;2023-01-29T10:47:57;1.90;94.40
23083;DHT22;11709;52.420;10.538;2023-01-29T10:52:04;1.90;94.80
23083;DHT22;11709;52.420;10.538;2023-01-29T10:56:22;1.90;95.40
23083;DHT22;11709;52.420;10.538;2023-01-29T11:00:27;1.90;93.90
23083;DHT22;11709;52.420;10.538;2023-01-29T11:04:31;1.90;93.80
23083;DHT22;11709;52.420;10.538;2023-01-29T11:08:37;1.90;92.00
23083;DHT22;11709;52.420;10.538;2023-01-29T11:12:39;1.90;93.20
23083;DHT22;11709;52.420;10.538;2023-01-29T11:16:45;2.00;93.30
23083;DHT22;11709;52.420;10.538;2023-01-29T11:20:46;2.10;91.90
23083;DHT22;11709;52.420;10.538;2023-01-29T11:25:09;2.00;91.90
23083;DHT22;11709;52.420;10.538;2023-01-29T11:33:30;2.10;90.20
23083;DHT22;11709;52.420;10.538;2023-01-29T11:37:35;2.10;92.00
23083;DHT22;11709;52.420;10.538;2023-01-29T11:41:41;2.10;88.40
23083;DHT22;11709;52.420;10.538;2023-01-29T11:45:44;2.10;88.60
23083;DHT22;11709;52.420;10.538;2023-01-29T11:49:48;2.20;87.20
23083;DHT22;11709;52.420;10.538;2023-01-29T11:53:51;2.20;83.30
23083;DHT22;11709;52.420;10.538;2023-01-29T11:58:03;2.20;90.00
23083;DHT22;11709;52.420;10.538;2023-01-29T12:02:30;2.20;92.30
23083;DHT22;11709;52.420;10.538;2023-01-29T12:10:37;2.30;88.80
23083;DHT22;11709;52.420;10.538;2023-01-29T12:14:36;2.30;90.10
23083;DHT22;11709;52.420;10.538;2023-01-29T12:18:39;2.30;89.40
23083;DHT22;11709;52.420;10.538;2023-01-29T12:22:44;2.40;87.70
23083;DHT22;11709;52.420;10.538;2023-01-29T12:26:49;2.30;87.90
23083;DHT22;11709;52.420;10.538;2023-01-29T12:31:25;2.40;87.50
23083;DHT22;11709;52.420;10.538;2023-01-29T12:35:49;2.40;89.90
23083;DHT22;11709;52.420;10.538;2023-01-29T12:39:29;2.40;86.30
23083;DHT22;11709;52.420;10.538;2023-01-29T12:43:34;2.30;90.30
23083;DHT22;11709;52.420;10.538;2023-01-29T12:47:36;2.30;90.20
23083;DHT22;11709;52.420;10.538;2023-01-29T12:51:41;2.40;90.90
23083;DHT22;11709;52.420;10.538;2023-01-29T12:55:45;2.40;90.80
23083;DHT22;11709;52.420;10.538;2023-01-29T12:59:51;2.50;90.30
23083;DHT22;11709;52.420;10.538;2023-01-29T13:08:07;2.40;90.30
23083;DHT22;11709;52.420;10.538;2023-01-29T13:12:06;2.40;88.30
23083;DHT22;11709;52.420;10.538;2023-01-29T13:16:10;2.40;90.30
23083;DHT22;11709;52.420;10.538;2023-01-29T13:20:25;2.40;89.60
23083;DHT22;11709;52.420;10.538;2023-01-29T13:24:31;2.50;86.40
23083;DHT22;11709;52.420;10.538;2023-01-29T13:28:31;2.50;85.70
23083;DHT22;11709;52.420;10.538;2023-01-29T13:32:33;2.50;88.00
23083;DHT22;11709;52.420;10.538;2023-01-29T13:36:36;2.50;91.00
23083;DHT22;11709;52.420;10.538;2023-01-29T13:40:46;2.50;90.50
23083;DHT22;11709;52.420;10.538;2023-01-29T13:44:51;2.50;90.80
23083;DHT22;11709;52.420;10.538;2023-01-29T13:48:54;2.50;90.10
23083;DHT22;11709;52.420;10.538;2023-01-29T13:52:58;2.50;90.40
23083;DHT22;11709;52.420;10.538;2023-01-29T13:57:01;2.50;90.20
23083;DHT22;11709;52.420;10.538;2023-01-29T14:01:03;2.60;90.40
23083;DHT22;11709;52.420;10.538;2023-01-29T14:13:40;2.60;88.60
23083;DHT22;11709;52.420;10.538;2023-01-29T14:22:17;2.60;88.50
23083;DHT22;11709;52.420;10.538;2023-01-29T14:26:18;2.60;88.50
23083;DHT22;11709;52.420;10.538;2023-01-29T14:30:20;2.60;87.60
23083;DHT22;11709;52.420;10.538;2023-01-29T14:34:35;2.60;87.90
23083;DHT22;11709;52.420;10.538;2023-01-29T14:38:37;2.70;87.80
23083;DHT22;11709;52.420;10.538;2023-01-29T14:42:59;2.70;87.80
23083;DHT22;11709;52.420;10.538;2023-01-29T14:47:01;2.70;85.70
23083;DHT22;11709;52.420;10.538;2023-01-29T14:51:05;2.70;87.20
23083;DHT22;11709;52.420;10.538;2023-01-29T14:55:26;2.60;87.60
23083;DHT22;11709;52.420;10.538;2023-01-29T14:59:32;2.60;84.90
23083;DHT22;11709;52.420;10.538;2023-01-29T15:03:44;2.50;72.40
23083;DHT22;11709;52.420;10.538;2023-01-29T15:08:31;2.50;71.40
23083;DHT22;11709;52.420;10.538;2023-01-29T15:12:16;2.50;62.70
23083;DHT22;11709;52.420;10.538;2023-01-29T15:16:19;2.50;63.40
23083;DHT22;11709;52.420;10.538;2023-01-29T15:20:26;2.50;62.30
23083;DHT22;11709;52.420;10.538;2023-01-29T15:24:28;2.50;65.60
23083;DHT22;11709;52.420;10.538;2023-01-29T15:28:30;2.50;76.90
23083;DHT22;11709;52.420;10.538;2023-01-29T15:32:35;2.40;87.00
23083;DHT22;11709;52.420;10.538;2023-01-29T15:36:37;2.40;94.50
23083;DHT22;11709;52.420;10.538;2023-01-29T15:40:40;2.40;94.90
23083;DHT22;11709;52.420;10.538;2023-01-29T15:44:45;2.30;96.30
23083;DHT22;11709;52.420;10.538;2023-01-29T15:48:48;2.30;97.30
23083;DHT22;11709;52.420;10.538;2023-01-29T15:52:50;2.30;99.90
23083;DHT22;11709;52.420;10.538;2023-01-29T15:56:54;2.00;99.90
23083;DHT22;11709;52.420;10.538;2023-01-29T16:00:56;2.10;99.90
23083;DHT22;11709;52.420;10.538;2023-01-29T16:04:59;2.50;99.90
23083;DHT22;11709;52.420;10.538;2023-01-29T16:09:02;2.50;99.90
23083;DHT22;11709;52.420;10.538;2023-01-29T16:13:05;2.10;99.90
23083;DHT22;11709;52.420;10.538;2023-01-29T16:21:34;2.10;99.90
23083;DHT22;11709;52.420;10.538;2023-01-29T16:25:36;2.00;99.90
23083;DHT22;11709;52.420;10.538;2023-01-29T16:29:39;1.90;99.90
23083;DHT22;11709;52.420;10.538;2023-01-29T16:33:41;2.00;99.90
23083;DHT22;11709;52.420;10.538;2023-01-29T16:37:47;1.80;99.90
23083;DHT22;11709;52.420;10.538;2023-01-29T16:46:16;1.20;99.90
23083;DHT22;11709;52.420;10.538;2023-01-29T16:50:31;1.60;99.90
23083;DHT22;11709;52.420;10.538;2023-01-29T16:54:36;1.60;99.90
23083;DHT22;11709;52.420;10.538;2023-01-29T16:58:39;1.60;99.90
23083;DHT22;11709;52.420;10.538;2023-01-29T17:02:41;1.60;99.90
23083;DHT22;11709;52.420;10.538;2023-01-29T17:06:53;1.60;99.90
23083;DHT22;11709;52.420;10.538;2023-01-29T17:10:49;1.60;99.90
23083;DHT22;11709;52.420;10.538;2023-01-29T17:14:59;1.60;99.90
23083;DHT22;11709;52.420;10.538;2023-01-29T17:18:57;1.50;99.90
23083;DHT22;11709;52.420;10.538;2023-01-29T17:22:59;1.50;99.90
23083;DHT22;11709;52.420;10.538;2023-01-29T17:27:01;1.60;99.90
23083;DHT22;11709;52.420;10.538;2023-01-29T17:31:03;1.70;99.90
23083;DHT22;11709;52.420;10.538;2023-01-29T17:35:05;1.60;99.90
23083;DHT22;11709;52.420;10.538;2023-01-29T17:39:19;1.60;99.90
23083;DHT22;11709;52.420;10.538;2023-01-29T17:43:10;1.70;99.90
23083;DHT22;11709;52.420;10.538;2023-01-29T17:47:12;1.70;99.90
23083;DHT22;11709;52.420;10.538;2023-01-29T17:51:15;1.80;99.90
23083;DHT22;11709;52.420;10.538;2023-01-29T17:55:17;1.80;99.90
23083;DHT22;11709;52.420;10.538;2023-01-29T17:59:20;1.90;99.90
23083;DHT22;11709;52.420;10.538;2023-01-29T18:03:22;1.90;99.90
23083;DHT22;11709;52.420;10.538;2023-01-29T18:07:26;2.20;99.90
23083;DHT22;11709;52.420;10.538;2023-01-29T18:11:27;3.00;99.90
23083;DHT22;11709;52.420;10.538;2023-01-29T18:15:29;1.90;99.90
23083;DHT22;11709;52.420;10.538;2023-01-29T18:19:31;2.00;99.90
23083;DHT22;11709;52.420;10.538;2023-01-29T18:23:33;1.90;99.90
23083;DHT22;11709;52.420;10.538;2023-01-29T18:27:35;2.00;99.90
23083;DHT22;11709;52.420;10.538;2023-01-29T18:31:36;2.00;99.90
23083;DHT22;11709;52.420;10.538;2023-01-29T18:35:38;1.90;99.90
23083;DHT22;11709;52.420;10.538;2023-01-29T18:39:40;2.00;99.90
23083;DHT22;11709;52.420;10.538;2023-01-29T18:43:42;1.90;99.90
23083;DHT22;11709;52.420;10.538;2023-01-29T18:47:44;1.90;99.90
23083;DHT22;11709;52.420;10.538;2023-01-29T18:51:46;2.00;99.90
23083;DHT22;11709;52.420;10.538;2023-01-29T18:55:57;2.00;99.90
23083;DHT22;11709;52.420;10.538;2023-01-29T18:59:59;1.90;99.90
23083;DHT22;11709;52.420;10.538;2023-01-29T19:04:01;1.70;99.90
23083;DHT22;11709;52.420;10.538;2023-01-29T19:08:03;2.10;99.90
23083;DHT22;11709;52.420;10.538;2023-01-29T19:12:05;2.10;99.90
23083;DHT22;11709;52.420;10.538;2023-01-29T19:16:08;2.10;99.90
23083;DHT22;11709;52.420;10.538;2023-01-29T19:20:10;2.20;99.90
23083;DHT22;11709;52.420;10.538;2023-01-29T19:24:12;2.20;99.90
23083;DHT22;11709;52.420;10.538;2023-01-29T19:28:14;2.30;99.90
23083;DHT22;11709;52.420;10.538;2023-01-29T19:32:16;2.20;99.90
23083;DHT22;11709;52.420;10.538;2023-01-29T19:36:18;2.20;99.90
23083;DHT22;11709;52.420;10.538;2023-01-29T19:40:20;2.20;99.90
23083;DHT22;11709;52.420;10.538;2023-01-29T19:44:22;2.20;99.90
23083;DHT22;11709;52.420;10.538;2023-01-29T19:48:25;2.10;99.90
23083;DHT22;11709;52.420;10.538;2023-01-29T19:52:26;1.90;99.90
23083;DHT22;11709;52.420;10.538;2023-01-29T19:56:34;2.40;99.90
23083;DHT22;11709;52.420;10.538;2023-01-29T20:00:36;2.20;99.90
23083;DHT22;11709;52.420;10.538;2023-01-29T20:04:38;2.20;99.90
23083;DHT22;11709;52.420;10.538;2023-01-29T20:08:40;2.20;99.90
23083;DHT22;11709;52.420;10.538;2023-01-29T20:12:42;2.10;99.90
23083;DHT22;11709;52.420;10.538;2023-01-29T20:16:44;2.10;99.90
23083;DHT22;11709;52.420;10.538;2023-01-29T20:20:49;2.10;99.90
23083;DHT22;11709;52.420;10.538;2023-01-29T20:24:52;2.00;99.90
23083;DHT22;11709;52.420;10.538;2023-01-29T20:28:54;2.10;99.90
23083;DHT22;11709;52.420;10.538;2023-01-29T20:32:56;2.10;99.90
23083;DHT22;11709;52.420;10.538;2023-01-29T20:36:58;2.10;99.90
23083;DHT22;11709;52.420;10.538;2023-01-29T20:41:03;1.90;99.90
23083;DHT22;11709;52.420;10.538;2023-01-29T20:49:27;2.20;99.90
23083;DHT22;11709;52.420;10.538;2023-01-29T20:53:29;2.20;99.90
23083;DHT22;11709;52.420;10.538;2023-01-29T20:57:31;2.20;99.90
23083;DHT22;11709;52.420;10.538;2023-01-29T21:01:33;2.20;99.90
23083;DHT22;11709;52.420;10.538;2023-01-29T21:05:35;2.20;99.90
23083;DHT22;11709;52.420;10.538;2023-01-29T21:09:36;2.20;99.90
23083;DHT22;11709;52.420;10.538;2023-01-29T21:13:38;2.30;99.90
23083;DHT22;11709;52.420;10.538;2023-01-29T21:17:40;2.20;99.90
23083;DHT22;11709;52.420;10.538;2023-01-29T21:21:42;2.30;99.90
23083;DHT22;11709;52.420;10.538;2023-01-29T21:25:44;2.60;99.90
23083;DHT22;11709;52.420;10.538;2023-01-29T21:29:45;2.30;99.90
23083;DHT22;11709;52.420;10.538;2023-01-29T21:33:48;2.40;99.90
23083;DHT22;11709;52.420;10.538;2023-01-29T21:37:50;2.10;99.90
23083;DHT22;11709;52.420;10.538;2023-01-29T21:41:52;2.40;99.90
23083;DHT22;11709;52.420;10.538;2023-01-29T21:45:56;2.40;99.90
23083;DHT22;11709;52.420;10.538;2023-01-29T21:49:58;2.40;99.90
23083;DHT22;11709;52.420;10.538;2023-01-29T21:54:00;2.50;99.90
23083;DHT22;11709;52.420;10.538;2023-01-29T21:58:03;2.50;99.90
23083;DHT22;11709;52.420;10.538;2023-01-29T22:02:05;2.10;99.90
23083;DHT22;11709;52.420;10.538;2023-01-29T22:06:07;2.50;99.90
23083;DHT22;11709;52.420;10.538;2023-01-29T22:10:09;2.20;99.90
23083;DHT22;11709;52.420;10.538;2023-01-29T22:14:11;2.50;99.90
23083;DHT22;11709;52.420;10.538;2023-01-29T22:18:13;2.50;99.90
23083;DHT22;11709;52.420;10.538;2023-01-29T22:22:15;2.50;99.90
23083;DHT22;11709;52.420;10.538;2023-01-29T22:26:18;2.50;99.90
23083;DHT22;11709;52.420;10.538;2023-01-29T22:30:20;2.50;99.90
23083;DHT22;11709;52.420;10.538;2023-01-29T22:34:23;2.50;99.90
23083;DHT22;11709;52.420;10.538;2023-01-29T22:38:24;2.50;99.90
23083;DHT22;11709;52.420;10.538;2023-01-29T22:42:26;2.70;99.90
23083;DHT22;11709;52.420;10.538;2023-01-29T22:46:28;2.50;99.90
23083;DHT22;11709;52.420;10.538;2023-01-29T22:50:30;2.60;99.90
23083;DHT22;11709;52.420;10.538;2023-01-29T22:54:31;2.50;99.90
23083;DHT22;11709;52.420;10.538;2023-01-29T22:58:34;2.70;99.90
23083;DHT22;11709;52.420;10.538;2023-01-29T23:02:36;2.70;99.90
23083;DHT22;11709;52.420;10.538;2023-01-29T23:06:38;2.70;99.90
23083;DHT22;11709;52.420;10.538;2023-01-29T23:10:41;2.80;99.90
23083;DHT22;11709;52.420;10.538;2023-01-29T23:14:43;2.80;99.90
23083;DHT22;11709;52.420;10.538;2023-01-29T23:18:50;2.90;99.90
23083;DHT22;11709;52.420;10.538;2023-01-29T23:22:52;2.90;99.90
23083;DHT22;11709;52.420;10.538;2023-01-29T23:26:54;2.90;99.90
23083;DHT22;11709;52.420;10.538;2023-01-29T23:31:15;3.00;99.90
23083;DHT22;11709;52.420;10.538;2023-01-29T23:35:17;3.00;99.90
23083;DHT22;11709;52.420;10.538;2023-01-29T23:39:19;3.00;99.90
23083;DHT22;11709;52.420;10.538;2023-01-29T23:43:20;3.00;99.90
23083;DHT22;11709;52.420;10.538;2023-01-29T23:47:27;3.10;99.90
23083;DHT22;11709;52.420;10.538;2023-01-29T23:51:25;3.10;99.90
23083;DHT22;11709;52.420;10.538;2023-01-29T23:55:28;3.10;99.90
23083;DHT22;11709;52.420;10.538;2023-01-29T23:59:30;3.20;99.90
